sensor_id;sensor_type;location;lat;lon;timestamp;pressure;altitude;pressure_sealevel;temperature
67966;BMP280;54749;47.850;9.002;2022-12-22T00:01:19;95717.38;;;7.45
67966;BMP280;54749;47.850;9.002;2022-12-22T00:04:10;95708.03;;;7.47
67966;BMP280;54749;47.850;9.002;2022-12-22T00:06:56;95704.63;;;7.48
67966;BMP280;54749;47.850;9.002;2022-12-22T00:09:42;95700.19;;;7.52
67966;BMP280;54749;47.850;9.002;2022-12-22T00:12:27;95706.59;;;7.55
67966;BMP280;54749;47.850;9.002;2022-12-22T00:15:15;95702.97;;;7.59
67966;BMP280;54749;47.850;9.002;2022-12-22T00:18:01;95691.13;;;7.61
67966;BMP280;54749;47.850;9.002;2022-12-22T00:20:47;95691.13;;;7.61
67966;BMP280;54749;47.850;9.002;2022-12-22T00:23:33;95693.50;;;7.63
67966;BMP280;54749;47.850;9.002;2022-12-22T00:26:19;95687.66;;;7.62
67966;BMP280;54749;47.850;9.002;2022-12-22T00:29:05;95687.56;;;7.64
67966;BMP280;54749;47.850;9.002;2022-12-22T00:31:53;95684.25;;;7.63
67966;BMP280;54749;47.850;9.002;2022-12-22T00:34:40;95684.16;;;7.65
67966;BMP280;54749;47.850;9.002;2022-12-22T00:37:29;95688.28;;;7.66
67966;BMP280;54749;47.850;9.002;2022-12-22T00:40:18;95686.78;;;7.63
67966;BMP280;54749;47.850;9.002;2022-12-22T00:43:03;95680.25;;;7.61
67966;BMP280;54749;47.850;9.002;2022-12-22T00:45:50;95675.63;;;7.55
67966;BMP280;54749;47.850;9.002;2022-12-22T00:48:38;95679.34;;;7.50
67966;BMP280;54749;47.850;9.002;2022-12-22T00:51:24;95673.75;;;7.46
67966;BMP280;54749;47.850;9.002;2022-12-22T00:54:12;95673.06;;;7.44
67966;BMP280;54749;47.850;9.002;2022-12-22T00:56:59;95669.72;;;7.44
67966;BMP280;54749;47.850;9.002;2022-12-22T00:59:47;95668.22;;;7.41
67966;BMP280;54749;47.850;9.002;2022-12-22T01:02:34;95660.69;;;7.41
67966;BMP280;54749;47.850;9.002;2022-12-22T01:05:20;95667.63;;;7.38
67966;BMP280;54749;47.850;9.002;2022-12-22T01:08:08;95660.50;;;7.32
67966;BMP280;54749;47.850;9.002;2022-12-22T01:10:53;95668.47;;;7.26
67966;BMP280;54749;47.850;9.002;2022-12-22T01:13:39;95659.63;;;7.21
67966;BMP280;54749;47.850;9.002;2022-12-22T01:16:25;95675.59;;;7.20
67966;BMP280;54749;47.850;9.002;2022-12-22T01:19:11;95681.50;;;7.19
67966;BMP280;54749;47.850;9.002;2022-12-22T01:21:57;95664.84;;;7.18
67966;BMP280;54749;47.850;9.002;2022-12-22T01:24:43;95672.97;;;7.21
67966;BMP280;54749;47.850;9.002;2022-12-22T01:27:29;95672.91;;;7.23
67966;BMP280;54749;47.850;9.002;2022-12-22T01:30:15;95691.16;;;7.25
67966;BMP280;54749;47.850;9.002;2022-12-22T01:33:01;95674.47;;;7.24
67966;BMP280;54749;47.850;9.002;2022-12-22T01:35:47;95672.97;;;7.21
67966;BMP280;54749;47.850;9.002;2022-12-22T01:38:32;95672.41;;;7.18
67966;BMP280;54749;47.850;9.002;2022-12-22T01:41:19;95677.50;;;7.17
67966;BMP280;54749;47.850;9.002;2022-12-22T01:44:14;95666.66;;;7.16
67966;BMP280;54749;47.850;9.002;2022-12-22T01:50:33;95656.59;;;7.16
67966;BMP280;54749;47.850;9.002;2022-12-22T01:53:22;95660.13;;;7.14
67966;BMP280;54749;47.850;9.002;2022-12-22T01:56:09;95656.09;;;7.11
67966;BMP280;54749;47.850;9.002;2022-12-22T01:58:58;95656.81;;;7.13
67966;BMP280;54749;47.850;9.002;2022-12-22T02:01:44;95660.00;;;7.15
67966;BMP280;54749;47.850;9.002;2022-12-22T02:04:36;95644.94;;;7.15
67966;BMP280;54749;47.850;9.002;2022-12-22T02:16:26;95646.16;;;7.22
67966;BMP280;54749;47.850;9.002;2022-12-22T02:19:22;95660.00;;;7.27
67966;BMP280;54749;47.850;9.002;2022-12-22T02:25:27;95639.69;;;7.30
67966;BMP280;54749;47.850;9.002;2022-12-22T02:28:14;95640.50;;;7.31
67966;BMP280;54749;47.850;9.002;2022-12-22T02:31:01;95639.56;;;7.32
67966;BMP280;54749;47.850;9.002;2022-12-22T02:33:46;95636.66;;;7.37
67966;BMP280;54749;47.850;9.002;2022-12-22T02:36:48;95636.03;;;7.46
67966;BMP280;54749;47.850;9.002;2022-12-22T02:42:40;95617.66;;;7.69
67966;BMP280;54749;47.850;9.002;2022-12-22T02:45:53;95613.59;;;7.78
67966;BMP280;54749;47.850;9.002;2022-12-22T02:48:45;95614.53;;;7.88
67966;BMP280;54749;47.850;9.002;2022-12-22T02:51:44;95611.38;;;7.97
67966;BMP280;54749;47.850;9.002;2022-12-22T02:54:31;95604.25;;;8.03
67966;BMP280;54749;47.850;9.002;2022-12-22T02:57:19;95594.75;;;8.06
67966;BMP280;54749;47.850;9.002;2022-12-22T03:00:06;95607.59;;;8.14
67966;BMP280;54749;47.850;9.002;2022-12-22T03:02:51;95607.59;;;8.14
67966;BMP280;54749;47.850;9.002;2022-12-22T03:05:37;95589.53;;;8.20
67966;BMP280;54749;47.850;9.002;2022-12-22T03:08:23;95583.38;;;8.24
67966;BMP280;54749;47.850;9.002;2022-12-22T03:11:09;95585.09;;;8.23
67966;BMP280;54749;47.850;9.002;2022-12-22T03:13:54;95574.47;;;8.31
67966;BMP280;54749;47.850;9.002;2022-12-22T03:16:40;95578.25;;;8.36
67966;BMP280;54749;47.850;9.002;2022-12-22T03:19:25;95573.34;;;8.35
67966;BMP280;54749;47.850;9.002;2022-12-22T03:22:11;95564.53;;;8.40
67966;BMP280;54749;47.850;9.002;2022-12-22T03:24:57;95576.91;;;8.43
67966;BMP280;54749;47.850;9.002;2022-12-22T03:27:42;95551.81;;;8.41
67966;BMP280;54749;47.850;9.002;2022-12-22T03:30:09;95545.19;;;8.40
67966;BMP280;54749;47.850;9.002;2022-12-22T03:32:36;95547.59;;;8.42
67966;BMP280;54749;47.850;9.002;2022-12-22T03:35:03;95555.06;;;8.43
67966;BMP280;54749;47.850;9.002;2022-12-22T03:37:31;95566.13;;;8.41
67966;BMP280;54749;47.850;9.002;2022-12-22T03:39:58;95545.19;;;8.40
67966;BMP280;54749;47.850;9.002;2022-12-22T03:42:25;95549.31;;;8.41
67966;BMP280;54749;47.850;9.002;2022-12-22T03:45:10;95549.22;;;8.43
67966;BMP280;54749;47.850;9.002;2022-12-22T03:47:56;95543.94;;;8.46
67966;BMP280;54749;47.850;9.002;2022-12-22T03:50:23;95544.31;;;8.52
67966;BMP280;54749;47.850;9.002;2022-12-22T03:52:50;95530.78;;;8.53
67966;BMP280;54749;47.850;9.002;2022-12-22T03:55:17;95528.06;;;8.56
67966;BMP280;54749;47.850;9.002;2022-12-22T03:57:44;95533.56;;;8.61
67966;BMP280;54749;47.850;9.002;2022-12-22T04:00:12;95533.41;;;8.62
67966;BMP280;54749;47.850;9.002;2022-12-22T04:02:39;95532.28;;;8.66
67966;BMP280;54749;47.850;9.002;2022-12-22T04:05:06;95535.59;;;8.67
67966;BMP280;54749;47.850;9.002;2022-12-22T04:07:34;95517.06;;;8.68
67966;BMP280;54749;47.850;9.002;2022-12-22T04:10:01;95502.84;;;8.67
67966;BMP280;54749;47.850;9.002;2022-12-22T04:12:50;95521.19;;;8.69
67966;BMP280;54749;47.850;9.002;2022-12-22T04:15:22;95512.72;;;8.70
67966;BMP280;54749;47.850;9.002;2022-12-22T04:17:49;95523.47;;;8.72
67966;BMP280;54749;47.850;9.002;2022-12-22T04:20:17;95518.88;;;8.76
67966;BMP280;54749;47.850;9.002;2022-12-22T04:22:45;95521.06;;;8.81
67966;BMP280;54749;47.850;9.002;2022-12-22T04:25:13;95516.72;;;8.83
67966;BMP280;54749;47.850;9.002;2022-12-22T04:27:40;95506.50;;;8.84
67966;BMP280;54749;47.850;9.002;2022-12-22T04:30:07;95510.38;;;8.88
67966;BMP280;54749;47.850;9.002;2022-12-22T04:32:34;95511.34;;;8.87
67966;BMP280;54749;47.850;9.002;2022-12-22T04:35:02;95504.91;;;8.83
67966;BMP280;54749;47.850;9.002;2022-12-22T04:37:29;95506.84;;;8.91
67966;BMP280;54749;47.850;9.002;2022-12-22T04:39:57;95519.31;;;8.92
67966;BMP280;54749;47.850;9.002;2022-12-22T04:42:25;95505.16;;;8.91
67966;BMP280;54749;47.850;9.002;2022-12-22T04:44:51;95504.19;;;8.92
67966;BMP280;54749;47.850;9.002;2022-12-22T04:47:19;95513.25;;;8.94
67966;BMP280;54749;47.850;9.002;2022-12-22T04:49:45;95505.47;;;8.97
67966;BMP280;54749;47.850;9.002;2022-12-22T04:52:13;95518.97;;;8.96
67966;BMP280;54749;47.850;9.002;2022-12-22T04:54:40;95528.28;;;8.96
67966;BMP280;54749;47.850;9.002;2022-12-22T04:57:07;95526.53;;;8.96
67966;BMP280;54749;47.850;9.002;2022-12-22T04:59:34;95506.03;;;9.01
67966;BMP280;54749;47.850;9.002;2022-12-22T05:02:01;95517.50;;;9.05
67966;BMP280;54749;47.850;9.002;2022-12-22T05:04:28;95519.78;;;9.08
67966;BMP280;54749;47.850;9.002;2022-12-22T05:06:55;95508.28;;;9.25
67966;BMP280;54749;47.850;9.002;2022-12-22T05:09:22;95520.66;;;9.28
67966;BMP280;54749;47.850;9.002;2022-12-22T05:11:49;95526.41;;;9.19
67966;BMP280;54749;47.850;9.002;2022-12-22T05:14:16;95531.91;;;9.13
67966;BMP280;54749;47.850;9.002;2022-12-22T05:16:43;95534.66;;;9.10
67966;BMP280;54749;47.850;9.002;2022-12-22T05:19:10;95536.50;;;9.09
67966;BMP280;54749;47.850;9.002;2022-12-22T05:21:38;95528.25;;;9.07
67966;BMP280;54749;47.850;9.002;2022-12-22T05:24:05;95522.41;;;9.06
67966;BMP280;54749;47.850;9.002;2022-12-22T05:26:32;95526.44;;;9.09
67966;BMP280;54749;47.850;9.002;2022-12-22T05:28:59;95511.06;;;9.11
67966;BMP280;54749;47.850;9.002;2022-12-22T05:31:26;95514.59;;;9.09
67966;BMP280;54749;47.850;9.002;2022-12-22T05:33:53;95507.28;;;9.06
67966;BMP280;54749;47.850;9.002;2022-12-22T05:36:21;95513.59;;;9.01
67966;BMP280;54749;47.850;9.002;2022-12-22T05:38:48;95517.50;;;8.94
67966;BMP280;54749;47.850;9.002;2022-12-22T05:41:15;95518.31;;;8.94
67966;BMP280;54749;47.850;9.002;2022-12-22T05:43:42;95526.66;;;8.95
67966;BMP280;54749;47.850;9.002;2022-12-22T05:46:10;95507.19;;;8.97
67966;BMP280;54749;47.850;9.002;2022-12-22T05:48:37;95509.69;;;8.97
67966;BMP280;54749;47.850;9.002;2022-12-22T05:51:07;95507.19;;;8.97
67966;BMP280;54749;47.850;9.002;2022-12-22T05:53:35;95502.72;;;9.00
67966;BMP280;54749;47.850;9.002;2022-12-22T05:56:03;95510.41;;;8.99
67966;BMP280;54749;47.850;9.002;2022-12-22T05:58:30;95523.09;;;8.97
67966;BMP280;54749;47.850;9.002;2022-12-22T06:01:00;95523.34;;;8.94
67966;BMP280;54749;47.850;9.002;2022-12-22T06:03:28;95515.88;;;8.93
67966;BMP280;54749;47.850;9.002;2022-12-22T06:05:56;95508.91;;;8.96
67966;BMP280;54749;47.850;9.002;2022-12-22T06:08:24;95517.72;;;9.02
67966;BMP280;54749;47.850;9.002;2022-12-22T06:10:55;95510.59;;;9.07
67966;BMP280;54749;47.850;9.002;2022-12-22T06:13:23;95501.22;;;9.09
67966;BMP280;54749;47.850;9.002;2022-12-22T06:15:51;95503.75;;;9.09
67966;BMP280;54749;47.850;9.002;2022-12-22T06:18:18;95495.38;;;9.08
67966;BMP280;54749;47.850;9.002;2022-12-22T06:20:46;95526.44;;;9.09
67966;BMP280;54749;47.850;9.002;2022-12-22T06:23:12;95544.97;;;9.08
67966;BMP280;54749;47.850;9.002;2022-12-22T06:25:40;95566.41;;;9.02
67966;BMP280;54749;47.850;9.002;2022-12-22T06:28:06;95539.03;;;8.98
67966;BMP280;54749;47.850;9.002;2022-12-22T06:30:34;95547.50;;;8.97
67966;BMP280;54749;47.850;9.002;2022-12-22T06:33:01;95552.78;;;8.94
67966;BMP280;54749;47.850;9.002;2022-12-22T06:35:28;95545.66;;;8.88
67966;BMP280;54749;47.850;9.002;2022-12-22T06:37:55;95543.94;;;8.89
67966;BMP280;54749;47.850;9.002;2022-12-22T06:40:22;95547.19;;;8.91
67966;BMP280;54749;47.850;9.002;2022-12-22T06:42:49;95547.50;;;8.97
67966;BMP280;54749;47.850;9.002;2022-12-22T06:45:40;95543.06;;;9.00
67966;BMP280;54749;47.850;9.002;2022-12-22T06:48:09;95546.81;;;8.95
67966;BMP280;54749;47.850;9.002;2022-12-22T06:50:36;95551.16;;;8.93
67966;BMP280;54749;47.850;9.002;2022-12-22T06:53:04;95546.63;;;8.87
67966;BMP280;54749;47.850;9.002;2022-12-22T06:55:31;95554.72;;;8.80
67966;BMP280;54749;47.850;9.002;2022-12-22T06:57:58;95544.31;;;8.74
67966;BMP280;54749;47.850;9.002;2022-12-22T07:00:25;95541.91;;;8.72
67966;BMP280;54749;47.850;9.002;2022-12-22T07:02:52;95530.34;;;8.70
67966;BMP280;54749;47.850;9.002;2022-12-22T07:05:20;95530.22;;;8.71
67966;BMP280;54749;47.850;9.002;2022-12-22T07:07:47;95529.19;;;8.74
67966;BMP280;54749;47.850;9.002;2022-12-22T07:10:14;95531.03;;;8.82
67966;BMP280;54749;47.850;9.002;2022-12-22T07:12:41;95529.06;;;8.86
67966;BMP280;54749;47.850;9.002;2022-12-22T07:15:08;95540.75;;;8.87
67966;BMP280;54749;47.850;9.002;2022-12-22T07:17:35;95538.25;;;8.87
67966;BMP280;54749;47.850;9.002;2022-12-22T07:20:03;95531.34;;;8.89
67966;BMP280;54749;47.850;9.002;2022-12-22T07:22:30;95546.38;;;8.90
67966;BMP280;54749;47.850;9.002;2022-12-22T07:24:58;95520.47;;;8.99
67966;BMP280;54749;47.850;9.002;2022-12-22T07:27:25;95515.66;;;9.07
67966;BMP280;54749;47.850;9.002;2022-12-22T07:29:52;95521.38;;;9.09
67966;BMP280;54749;47.850;9.002;2022-12-22T07:32:19;95506.25;;;9.09
67966;BMP280;54749;47.850;9.002;2022-12-22T07:34:46;95529.16;;;9.16
67966;BMP280;54749;47.850;9.002;2022-12-22T07:37:13;95503.94;;;9.16
67966;BMP280;54749;47.850;9.002;2022-12-22T07:39:40;95505.78;;;9.14
67966;BMP280;54749;47.850;9.002;2022-12-22T07:42:10;95487.91;;;9.17
67966;BMP280;54749;47.850;9.002;2022-12-22T07:44:56;95470.47;;;9.14
67966;BMP280;54749;47.850;9.002;2022-12-22T07:47:23;95456.16;;;9.15
67966;BMP280;54749;47.850;9.002;2022-12-22T07:49:59;95491.47;;;9.15
67966;BMP280;54749;47.850;9.002;2022-12-22T07:52:44;95481.72;;;9.10
67966;BMP280;54749;47.850;9.002;2022-12-22T07:55:12;95470.97;;;9.09
67966;BMP280;54749;47.850;9.002;2022-12-22T07:57:39;95481.53;;;9.03
67966;BMP280;54749;47.850;9.002;2022-12-22T08:00:07;95500.06;;;9.02
67966;BMP280;54749;47.850;9.002;2022-12-22T08:02:37;95499.84;;;9.05
67966;BMP280;54749;47.850;9.002;2022-12-22T08:05:06;95517.50;;;9.05
67966;BMP280;54749;47.850;9.002;2022-12-22T08:07:34;95518.72;;;9.10
67966;BMP280;54749;47.850;9.002;2022-12-22T08:10:01;95519.53;;;9.10
67966;BMP280;54749;47.850;9.002;2022-12-22T08:12:28;95503.16;;;9.16
67966;BMP280;54749;47.850;9.002;2022-12-22T08:14:56;95507.13;;;9.18
67966;BMP280;54749;47.850;9.002;2022-12-22T08:17:23;95500.53;;;9.17
67966;BMP280;54749;47.850;9.002;2022-12-22T08:19:50;95492.81;;;9.19
67966;BMP280;54749;47.850;9.002;2022-12-22T08:22:17;95494.44;;;9.20
67966;BMP280;54749;47.850;9.002;2022-12-22T08:24:44;95497.97;;;9.28
67966;BMP280;54749;47.850;9.002;2022-12-22T08:27:13;95493.00;;;9.37
67966;BMP280;54749;47.850;9.002;2022-12-22T08:29:54;95482.50;;;9.52
67966;BMP280;54749;47.850;9.002;2022-12-22T08:32:22;95490.13;;;9.72
67966;BMP280;54749;47.850;9.002;2022-12-22T08:34:50;95493.06;;;10.08
67966;BMP280;54749;47.850;9.002;2022-12-22T08:37:20;95493.81;;;10.39
67966;BMP280;54749;47.850;9.002;2022-12-22T08:39:51;95505.31;;;10.61
67966;BMP280;54749;47.850;9.002;2022-12-22T08:42:20;95512.91;;;10.90
67966;BMP280;54749;47.850;9.002;2022-12-22T08:44:48;95524.38;;;10.94
67966;BMP280;54749;47.850;9.002;2022-12-22T08:47:19;95513.41;;;10.85
67966;BMP280;54749;47.850;9.002;2022-12-22T08:49:48;95520.84;;;10.77
67966;BMP280;54749;47.850;9.002;2022-12-22T08:52:15;95531.72;;;10.68
67966;BMP280;54749;47.850;9.002;2022-12-22T08:54:45;95550.81;;;10.61
67966;BMP280;54749;47.850;9.002;2022-12-22T08:57:12;95573.63;;;10.50
67966;BMP280;54749;47.850;9.002;2022-12-22T08:59:39;95573.75;;;10.29
67966;BMP280;54749;47.850;9.002;2022-12-22T09:02:06;95575.31;;;10.10
67966;BMP280;54749;47.850;9.002;2022-12-22T09:04:36;95574.09;;;10.05
67966;BMP280;54749;47.850;9.002;2022-12-22T09:07:03;95574.06;;;10.15
67966;BMP280;54749;47.850;9.002;2022-12-22T09:09:32;95554.81;;;10.44
67966;BMP280;54749;47.850;9.002;2022-12-22T09:12:00;95552.06;;;10.47
67966;BMP280;54749;47.850;9.002;2022-12-22T09:14:28;95540.69;;;10.61
67966;BMP280;54749;47.850;9.002;2022-12-22T09:16:55;95548.25;;;10.81
67966;BMP280;54749;47.850;9.002;2022-12-22T09:19:23;95540.97;;;10.87
67966;BMP280;54749;47.850;9.002;2022-12-22T09:21:50;95549.59;;;10.85
67966;BMP280;54749;47.850;9.002;2022-12-22T09:24:17;95553.94;;;11.03
67966;BMP280;54749;47.850;9.002;2022-12-22T09:26:44;95550.91;;;11.38
67966;BMP280;54749;47.850;9.002;2022-12-22T09:29:12;95557.53;;;11.39
67966;BMP280;54749;47.850;9.002;2022-12-22T09:31:42;95548.88;;;11.32
67966;BMP280;54749;47.850;9.002;2022-12-22T09:34:09;95560.94;;;10.90
67966;BMP280;54749;47.850;9.002;2022-12-22T09:36:43;95573.59;;;10.70
67966;BMP280;54749;47.850;9.002;2022-12-22T09:39:10;95568.03;;;10.47
67966;BMP280;54749;47.850;9.002;2022-12-22T09:41:48;95570.06;;;10.33
67966;BMP280;54749;47.850;9.002;2022-12-22T09:46:49;95587.91;;;10.41
67966;BMP280;54749;47.850;9.002;2022-12-22T09:49:18;95590.13;;;10.54
67966;BMP280;54749;47.850;9.002;2022-12-22T09:51:48;95598.66;;;10.83
67966;BMP280;54749;47.850;9.002;2022-12-22T09:54:16;95596.59;;;11.17
67966;BMP280;54749;47.850;9.002;2022-12-22T09:56:43;95580.44;;;11.28
67966;BMP280;54749;47.850;9.002;2022-12-22T09:59:15;95576.16;;;11.29
67966;BMP280;54749;47.850;9.002;2022-12-22T10:01:56;95580.25;;;11.59
67966;BMP280;54749;47.850;9.002;2022-12-22T10:04:44;95579.22;;;12.54
67966;BMP280;54749;47.850;9.002;2022-12-22T10:07:32;95572.69;;;13.67
67966;BMP280;54749;47.850;9.002;2022-12-22T10:10:26;95567.88;;;13.90
67966;BMP280;54749;47.850;9.002;2022-12-22T10:13:05;95562.31;;;14.88
67966;BMP280;54749;47.850;9.002;2022-12-22T10:15:38;95563.84;;;14.98
67966;BMP280;54749;47.850;9.002;2022-12-22T10:18:28;95571.22;;;14.25
67966;BMP280;54749;47.850;9.002;2022-12-22T10:21:08;95546.84;;;15.31
67966;BMP280;54749;47.850;9.002;2022-12-22T10:23:43;95546.94;;;16.18
67966;BMP280;54749;47.850;9.002;2022-12-22T10:26:14;95548.38;;;16.05
67966;BMP280;54749;47.850;9.002;2022-12-22T10:28:58;95549.91;;;15.50
67966;BMP280;54749;47.850;9.002;2022-12-22T10:31:28;95556.84;;;14.75
67966;BMP280;54749;47.850;9.002;2022-12-22T10:34:12;95568.72;;;13.99
67966;BMP280;54749;47.850;9.002;2022-12-22T10:36:46;95566.38;;;13.71
67966;BMP280;54749;47.850;9.002;2022-12-22T10:39:28;95558.91;;;13.43
67966;BMP280;54749;47.850;9.002;2022-12-22T10:42:06;95579.50;;;13.93
67966;BMP280;54749;47.850;9.002;2022-12-22T10:44:35;95578.75;;;13.83
67966;BMP280;54749;47.850;9.002;2022-12-22T10:47:13;95569.69;;;14.73
67966;BMP280;54749;47.850;9.002;2022-12-22T10:49:46;95566.75;;;14.86
67966;BMP280;54749;47.850;9.002;2022-12-22T10:55:17;95570.50;;;14.15
67966;BMP280;54749;47.850;9.002;2022-12-22T10:57:44;95594.38;;;13.79
67966;BMP280;54749;47.850;9.002;2022-12-22T11:00:24;95589.56;;;13.32
67966;BMP280;54749;47.850;9.002;2022-12-22T11:02:54;95594.84;;;13.03
67966;BMP280;54749;47.850;9.002;2022-12-22T11:05:21;95589.44;;;12.89
67966;BMP280;54749;47.850;9.002;2022-12-22T11:07:49;95599.38;;;12.46
67966;BMP280;54749;47.850;9.002;2022-12-22T11:12:57;95595.50;;;12.14
67966;BMP280;54749;47.850;9.002;2022-12-22T11:15:34;95603.38;;;12.11
67966;BMP280;54749;47.850;9.002;2022-12-22T11:21:29;95575.22;;;13.41
67966;BMP280;54749;47.850;9.002;2022-12-22T11:24:31;95584.88;;;13.37
67966;BMP280;54749;47.850;9.002;2022-12-22T11:32:45;95599.59;;;12.80
67966;BMP280;54749;47.850;9.002;2022-12-22T11:35:37;95603.75;;;12.81
67966;BMP280;54749;47.850;9.002;2022-12-22T11:38:34;95594.50;;;12.98
67966;BMP280;54749;47.850;9.002;2022-12-22T11:41:24;95602.66;;;12.93
67966;BMP280;54749;47.850;9.002;2022-12-22T11:49:23;95597.09;;;12.71
67966;BMP280;54749;47.850;9.002;2022-12-22T11:52:15;95613.78;;;12.55
67966;BMP280;54749;47.850;9.002;2022-12-22T11:55:10;95604.03;;;12.32
67966;BMP280;54749;47.850;9.002;2022-12-22T12:00:44;95604.28;;;12.01
67966;BMP280;54749;47.850;9.002;2022-12-22T12:25:29;95608.41;;;12.39
67966;BMP280;54749;47.850;9.002;2022-12-22T12:28:06;95611.22;;;12.55
67966;BMP280;54749;47.850;9.002;2022-12-22T12:30:47;95590.69;;;12.67
67966;BMP280;54749;47.850;9.002;2022-12-22T12:33:37;95613.63;;;12.75
67966;BMP280;54749;47.850;9.002;2022-12-22T12:39:09;95609.59;;;12.81
67966;BMP280;54749;47.850;9.002;2022-12-22T12:41:55;95611.19;;;12.92
67966;BMP280;54749;47.850;9.002;2022-12-22T12:44:31;95610.53;;;12.90
67966;BMP280;54749;47.850;9.002;2022-12-22T12:47:19;95601.31;;;12.98
67966;BMP280;54749;47.850;9.002;2022-12-22T12:55:29;95607.44;;;12.96
67966;BMP280;54749;47.850;9.002;2022-12-22T12:58:01;95604.22;;;13.03
67966;BMP280;54749;47.850;9.002;2022-12-22T13:03:04;95603.19;;;12.78
67966;BMP280;54749;47.850;9.002;2022-12-22T13:21:18;95638.19;;;12.37
67966;BMP280;54749;47.850;9.002;2022-12-22T13:24:25;95629.63;;;12.47
67966;BMP280;54749;47.850;9.002;2022-12-22T13:27:00;95633.09;;;12.56
67966;BMP280;54749;47.850;9.002;2022-12-22T13:29:39;95636.72;;;12.62
67966;BMP280;54749;47.850;9.002;2022-12-22T13:32:26;95643.53;;;12.62
67966;BMP280;54749;47.850;9.002;2022-12-22T13:35:32;95632.31;;;12.74
67966;BMP280;54749;47.850;9.002;2022-12-22T13:38:32;95628.19;;;12.63
67966;BMP280;54749;47.850;9.002;2022-12-22T13:41:15;95645.16;;;12.63
67966;BMP280;54749;47.850;9.002;2022-12-22T13:44:05;95649.81;;;12.67
67966;BMP280;54749;47.850;9.002;2022-12-22T13:46:36;95644.19;;;12.73
67966;BMP280;54749;47.850;9.002;2022-12-22T13:49:07;95655.41;;;12.80
67966;BMP280;54749;47.850;9.002;2022-12-22T13:51:36;95658.97;;;12.87
67966;BMP280;54749;47.850;9.002;2022-12-22T13:54:14;95664.44;;;12.92
67966;BMP280;54749;47.850;9.002;2022-12-22T13:56:51;95670.63;;;12.61
67966;BMP280;54749;47.850;9.002;2022-12-22T13:59:42;95667.81;;;12.55
67966;BMP280;54749;47.850;9.002;2022-12-22T14:04:43;95676.03;;;12.39
67966;BMP280;54749;47.850;9.002;2022-12-22T14:07:19;95676.72;;;12.31
67966;BMP280;54749;47.850;9.002;2022-12-22T14:09:48;95681.25;;;12.28
67966;BMP280;54749;47.850;9.002;2022-12-22T14:12:21;95672.56;;;12.21
67966;BMP280;54749;47.850;9.002;2022-12-22T14:14:50;95664.00;;;12.13
67966;BMP280;54749;47.850;9.002;2022-12-22T14:17:24;95669.22;;;12.02
67966;BMP280;54749;47.850;9.002;2022-12-22T14:19:56;95676.66;;;11.94
67966;BMP280;54749;47.850;9.002;2022-12-22T14:22:34;95681.53;;;11.77
67966;BMP280;54749;47.850;9.002;2022-12-22T14:25:15;95672.19;;;11.69
67966;BMP280;54749;47.850;9.002;2022-12-22T14:27:48;95680.41;;;11.61
67966;BMP280;54749;47.850;9.002;2022-12-22T14:30:18;95683.53;;;11.45
67966;BMP280;54749;47.850;9.002;2022-12-22T14:32:50;95686.16;;;11.34
67966;BMP280;54749;47.850;9.002;2022-12-22T14:38:13;95673.44;;;11.25
67966;BMP280;54749;47.850;9.002;2022-12-22T14:40:43;95680.72;;;11.19
67966;BMP280;54749;47.850;9.002;2022-12-22T14:45:50;95698.38;;;11.09
67966;BMP280;54749;47.850;9.002;2022-12-22T14:48:32;95689.44;;;11.05
67966;BMP280;54749;47.850;9.002;2022-12-22T14:51:00;95691.34;;;10.93
67966;BMP280;54749;47.850;9.002;2022-12-22T14:53:50;95702.09;;;10.85
67966;BMP280;54749;47.850;9.002;2022-12-22T14:56:18;95716.13;;;10.79
67966;BMP280;54749;47.850;9.002;2022-12-22T14:58:47;95719.25;;;10.71
67966;BMP280;54749;47.850;9.002;2022-12-22T15:04:01;95704.75;;;10.53
67966;BMP280;54749;47.850;9.002;2022-12-22T15:06:34;95708.81;;;10.45
67966;BMP280;54749;47.850;9.002;2022-12-22T15:11:35;95695.19;;;10.37
67966;BMP280;54749;47.850;9.002;2022-12-22T15:14:03;95707.09;;;10.35
67966;BMP280;54749;47.850;9.002;2022-12-22T15:16:30;95711.75;;;10.30
67966;BMP280;54749;47.850;9.002;2022-12-22T15:18:58;95707.59;;;10.29
67966;BMP280;54749;47.850;9.002;2022-12-22T15:21:25;95719.31;;;10.30
67966;BMP280;54749;47.850;9.002;2022-12-22T15:23:52;95713.31;;;10.31
67966;BMP280;54749;47.850;9.002;2022-12-22T15:26:19;95710.59;;;10.34
67966;BMP280;54749;47.850;9.002;2022-12-22T15:28:46;95703.91;;;10.33
67966;BMP280;54749;47.850;9.002;2022-12-22T15:31:14;95695.19;;;10.37
67966;BMP280;54749;47.850;9.002;2022-12-22T15:33:43;95701.84;;;10.38
67966;BMP280;54749;47.850;9.002;2022-12-22T15:36:13;95705.28;;;10.37
67966;BMP280;54749;47.850;9.002;2022-12-22T15:38:40;95703.44;;;10.39
67966;BMP280;54749;47.850;9.002;2022-12-22T15:41:07;95701.84;;;10.38
67966;BMP280;54749;47.850;9.002;2022-12-22T15:43:34;95707.69;;;10.38
67966;BMP280;54749;47.850;9.002;2022-12-22T15:46:21;95718.47;;;10.40
67966;BMP280;54749;47.850;9.002;2022-12-22T15:48:51;95715.94;;;10.40
67966;BMP280;54749;47.850;9.002;2022-12-22T15:51:23;95711.59;;;10.42
67966;BMP280;54749;47.850;9.002;2022-12-22T15:53:53;95709.88;;;10.43
67966;BMP280;54749;47.850;9.002;2022-12-22T15:56:24;95714.22;;;10.41
67966;BMP280;54749;47.850;9.002;2022-12-22T15:58:51;95707.34;;;10.32
67966;BMP280;54749;47.850;9.002;2022-12-22T16:01:18;95712.53;;;10.31
67966;BMP280;54749;47.850;9.002;2022-12-22T16:03:46;95705.09;;;10.29
67966;BMP280;54749;47.850;9.002;2022-12-22T16:06:15;95713.81;;;10.25
67966;BMP280;54749;47.850;9.002;2022-12-22T16:08:46;95704.66;;;10.14
67966;BMP280;54749;47.850;9.002;2022-12-22T16:11:16;95695.25;;;10.05
67966;BMP280;54749;47.850;9.002;2022-12-22T16:13:43;95691.88;;;9.95
67966;BMP280;54749;47.850;9.002;2022-12-22T16:16:10;95695.75;;;9.88
67966;BMP280;54749;47.850;9.002;2022-12-22T16:18:38;95699.91;;;9.79
67966;BMP280;54749;47.850;9.002;2022-12-22T16:21:10;95699.53;;;9.72
67966;BMP280;54749;47.850;9.002;2022-12-22T16:23:40;95693.22;;;9.67
67966;BMP280;54749;47.850;9.002;2022-12-22T16:26:15;95690.94;;;9.64
67966;BMP280;54749;47.850;9.002;2022-12-22T16:28:43;95693.69;;;9.61
67966;BMP280;54749;47.850;9.002;2022-12-22T16:31:22;95694.03;;;9.57
67966;BMP280;54749;47.850;9.002;2022-12-22T16:33:50;95687.41;;;9.56
67966;BMP280;54749;47.850;9.002;2022-12-22T16:36:17;95675.81;;;9.53
67966;BMP280;54749;47.850;9.002;2022-12-22T16:38:45;95675.81;;;9.53
67966;BMP280;54749;47.850;9.002;2022-12-22T16:41:18;95675.81;;;9.53
67966;BMP280;54749;47.850;9.002;2022-12-22T16:43:46;95677.41;;;9.54
67966;BMP280;54749;47.850;9.002;2022-12-22T16:46:19;95669.84;;;9.54